createdAt,value
2019-03-28T00:34:23.148Z,5.00
2019-03-28T00:37:03.949Z,5.00
2019-03-28T00:39:44.893Z,4.90
2019-03-28T01:43:37.893Z,4.80
2019-03-28T01:46:18.264Z,4.80
2019-03-28T01:48:59.192Z,4.80
2019-03-28T01:51:39.911Z,4.80
2019-03-28T01:54:21.300Z,4.80
2019-03-28T01:57:10.956Z,4.80
2019-03-28T01:59:44.442Z,4.80
2019-03-28T02:02:24.158Z,4.80
2019-03-28T02:05:05.076Z,4.80
2019-03-28T02:07:46.160Z,4.80
2019-03-28T02:10:26.559Z,4.80
2019-03-28T02:13:06.545Z,4.80
2019-03-28T02:15:47.746Z,4.80
2019-03-28T02:18:27.956Z,4.80
2019-03-28T02:21:09.562Z,4.80
2019-03-28T02:23:50.295Z,4.80
2019-03-28T02:26:30.163Z,4.80
2019-03-28T02:29:10.871Z,4.80
2019-03-28T02:31:51.924Z,4.80
2019-03-28T02:34:32.536Z,4.80
2019-03-28T02:39:56.941Z,4.80
2019-03-28T02:42:37.957Z,4.80
2019-03-28T02:45:18.693Z,4.80
2019-03-28T02:47:58.607Z,4.80
2019-03-28T02:50:38.685Z,4.80
2019-03-28T02:53:19.391Z,4.80
2019-03-28T03:11:16.638Z,4.80
2019-03-28T03:23:20.102Z,4.80
2019-03-28T04:20:56.525Z,4.80
2019-03-28T04:23:37.139Z,4.80
2019-03-28T04:50:52.073Z,4.80
2019-03-28T05:05:45.847Z,4.80
2019-03-28T05:08:26.383Z,4.80
2019-03-28T05:11:07.351Z,4.80
2019-03-28T05:22:58.038Z,4.90
2019-03-28T05:25:38.027Z,4.80
2019-03-28T05:28:19.162Z,4.90
2019-03-28T05:30:59.275Z,4.90
2019-03-28T05:33:40.615Z,4.90
2019-03-28T05:36:20.878Z,4.90
2019-03-28T05:39:02.740Z,4.90
2019-03-28T05:41:43.026Z,4.90
2019-03-28T05:47:21.962Z,5.00
2019-03-28T05:52:45.307Z,5.10
2019-03-28T05:55:25.393Z,5.10
2019-03-28T05:58:05.865Z,5.10
2019-03-28T06:00:46.152Z,5.10
2019-03-28T06:03:26.687Z,5.10
2019-03-28T06:06:07.825Z,5.10
2019-03-28T07:34:24.735Z,5.50
2019-03-28T08:01:45.656Z,5.60
2019-03-28T08:04:26.965Z,5.70
2019-03-28T09:11:34.912Z,6.20
2019-03-28T10:49:06.890Z,6.70
2019-03-28T12:11:26.543Z,7.40
2019-03-28T12:14:08.450Z,7.40
2019-03-28T12:16:49.911Z,7.30
2019-03-28T12:19:36.896Z,7.30
2019-03-28T12:22:18.983Z,7.30
2019-03-28T12:24:59.984Z,7.40
2019-03-28T12:27:41.699Z,7.40
2019-03-28T12:33:08.281Z,7.30
2019-03-28T12:42:14.986Z,7.30
2019-03-28T12:48:07.886Z,7.30
2019-03-28T13:15:15.473Z,7.30
2019-03-28T13:21:13.817Z,7.40
2019-03-28T13:39:30.545Z,7.50
2019-03-28T13:48:30.944Z,7.50
2019-03-28T14:12:41.018Z,7.40
2019-03-28T15:07:21.973Z,7.40
2019-03-28T15:22:42.562Z,7.40
2019-03-28T16:02:21.639Z,7.50
2019-03-28T16:35:58.602Z,7.40
2019-03-28T17:36:48.474Z,7.20
2019-03-28T18:04:04.616Z,7.10
2019-03-28T19:20:25.289Z,6.90
2019-03-28T19:23:07.427Z,6.90
2019-03-28T19:25:48.360Z,6.90
2019-03-28T19:28:30.442Z,6.90
2019-03-28T19:31:10.644Z,6.90
2019-03-28T19:33:52.106Z,6.90
2019-03-28T19:39:23.988Z,6.90
2019-03-28T19:42:04.842Z,6.90
2019-03-28T19:44:46.127Z,6.90
2019-03-28T19:47:28.612Z,6.80
2019-03-28T19:50:08.187Z,6.90
2019-03-28T19:52:48.182Z,6.90
2019-03-28T19:55:31.358Z,6.90
2019-03-28T19:58:13.790Z,6.90
2019-03-28T20:00:57.716Z,6.90
2019-03-28T20:03:38.349Z,6.90
2019-03-28T20:06:22.354Z,6.90
2019-03-28T20:09:01.276Z,6.90
2019-03-28T20:11:41.505Z,6.90
2019-03-28T20:14:21.125Z,6.80
2019-03-28T20:17:01.281Z,6.80
2019-03-28T20:19:41.614Z,6.80
2019-03-28T20:22:21.793Z,6.80
2019-03-28T20:25:01.537Z,6.90
2019-03-28T20:27:41.474Z,6.80
2019-03-28T20:30:21.168Z,6.80
2019-03-28T20:33:01.653Z,6.80
2019-03-28T20:35:41.673Z,6.80
2019-03-28T20:38:21.729Z,6.80
2019-03-28T20:41:02.195Z,6.80
2019-03-28T20:43:42.486Z,6.80
2019-03-28T20:46:23.818Z,6.80
2019-03-28T20:49:04.750Z,6.80
2019-03-28T20:51:45.462Z,6.80
2019-03-28T20:54:26.075Z,6.80
2019-03-28T20:57:06.740Z,6.80
2019-03-28T20:59:47.396Z,6.80
2019-03-28T21:02:29.558Z,6.80
2019-03-28T21:05:10.808Z,6.80
2019-03-28T21:07:51.573Z,6.70
2019-03-28T21:10:33.501Z,6.70
2019-03-28T21:13:14.679Z,6.70
2019-03-28T21:15:55.438Z,6.70
2019-03-28T21:18:36.700Z,6.70
2019-03-28T21:21:17.621Z,6.70
2019-03-28T21:23:58.515Z,6.70
2019-03-28T21:26:40.959Z,6.70
2019-03-28T21:29:22.267Z,6.70
2019-03-28T21:32:02.881Z,6.70
2019-03-28T21:34:45.360Z,6.70
2019-03-28T21:37:26.238Z,6.70
2019-03-28T21:40:07.023Z,6.70
2019-03-28T21:42:47.724Z,6.70
2019-03-28T21:45:29.059Z,6.70
2019-03-28T21:48:11.606Z,6.70
2019-03-28T21:50:53.216Z,6.70
2019-03-28T21:56:20.645Z,6.70
2019-03-28T21:59:02.025Z,6.70
2019-03-28T22:01:42.865Z,6.70
2019-03-28T22:04:23.713Z,6.70
2019-03-28T22:07:04.444Z,6.70
2019-03-28T22:09:45.391Z,6.70
2019-03-28T22:12:25.931Z,6.70
2019-03-28T22:15:06.598Z,6.70
2019-03-28T22:17:47.288Z,6.70
2019-03-28T22:20:28.035Z,6.70
2019-03-28T22:23:09.229Z,6.70
2019-03-28T22:25:50.147Z,6.60
2019-03-28T22:28:31.269Z,6.60
2019-03-28T22:31:12.199Z,6.60
2019-03-28T22:33:53.022Z,6.60
2019-03-28T22:36:37.340Z,6.60
2019-03-28T22:39:18.096Z,6.60
2019-03-28T22:42:00.950Z,6.60
2019-03-28T22:44:42.248Z,6.60
2019-03-28T22:47:23.374Z,6.60
2019-03-28T22:50:04.400Z,6.60
2019-03-28T22:52:45.633Z,6.60
2019-03-28T22:55:26.301Z,6.60
2019-03-28T22:58:08.112Z,6.60
2019-03-28T23:00:49.189Z,6.60
2019-03-28T23:03:30.428Z,6.60
2019-03-28T23:06:11.873Z,6.70
2019-03-28T23:11:31.788Z,6.60
2019-03-28T23:14:12.774Z,6.60
2019-03-28T23:16:53.487Z,6.60
2019-03-28T23:19:35.581Z,6.60
2019-03-28T23:22:16.022Z,6.60
2019-03-28T23:24:56.761Z,6.60
2019-03-28T23:27:38.646Z,6.60
2019-03-28T23:30:19.702Z,6.60
2019-03-28T23:33:01.278Z,6.60
2019-03-28T23:35:42.308Z,6.60
2019-03-28T23:38:22.987Z,6.60
2019-03-28T23:41:03.670Z,6.60
2019-03-28T23:43:44.902Z,6.60
2019-03-28T23:46:27.101Z,6.60
2019-03-28T23:51:52.434Z,6.60
2019-03-28T23:54:35.627Z,6.50
2019-03-28T23:57:16.900Z,6.50
2019-03-28T23:59:59.435Z,6.50
